KRGK

Red Wing Regional Airport

Red Wing, Minnesota, USA
METAR KRGK 180215Z AUTO 00000KT 10SM CLR 23/16 A3005 RMK AO2
Observed Flight Rules
Aug-18 @ 02:15 UTC (13 minutes ago) Visual Flight Rules
Visibility Clouds
10 miles
  • Clear skies
Temperatures Readings
Current 23°C / 73°F
Dewpoint 16°C / 61°F
Humidity 65%
Altimeter 30.05" Hg
Pressure 1018 hPa
Elevation 239
METAR KRGK 180215Z AUTO 00000KT 10SM CLR 23/16 A3005 RMK AO2
Observed Flight Rules
Aug-18 @ 02:15 UTC
(13 minutes ago)
VFR
Clouds
  • Clear skies
Temperature Dewpoint
23°C / 73°F 16°C / 61°F
Humidity Altimeter Pressure
65% 30.05" Hg 1018 hPa